Williams Center, Oklahoma
Current Conditions -  °F | °C
As of 1:53 AM on Thursday 27 Nov 2014 (Local Time) from KTUL Reporting Station
Few Clouds Few Clouds  
Wind Chill: 25°   Ceiling: Unl
Heat Index: 32°   Visibility: 10mi
Dew Point: 23°   Wind: 8mph
Humidity: 69%   Direction: 360°N
Pressure: 30.46"   Gusts: NA
Location:  36.1544°N, 95.9905°W
Report Text: KTUL 270753Z 36007KT 10SM FEW110 00/M05 A3046 RMK AO2 SLP315 T00001050
Loading
Personal Weather Stations






























Interactive Weather Map New forecast layout! Learn more

10-Day Weather Forecast

Advertisements
Track Severe Weather on mobile